La Crosse Municipal Airport La Crosse US
ICAO: KLSE
IATA: LSE
Category: Medium
Scheduled Services: Yes

Elevation: 655 ft
TransAlt. 18000 ft.

Airport Communications:
ATIS:124.95
MINNEAPOLIS CNTR:128.6
CTAF:118.45
GND:121.8
GREEN BAY RDO:122.2
TWR:118.45
UNICOM:122.95

KLSE Zoom In..

Runways:

(A) RW 03 length 5199 ft width 150 ft
---- / hdg 34

(B) RW 13 length 6050 ft width 150 ft
---- / hdg 132

(C) RW 18 length 8742 ft width 150 ft
ILS 111.10 / hdg 177

(D) RW 21 length 5199 ft width 150 ft
---- / hdg 214

(E) RW 31 length 6050 ft width 150 ft
---- / hdg 312

(F) RW 36 length 8742 ft width 150 ft
---- / hdg 357

Location; KLSE
Day. 20 / Time. 16.53 Zulu
* Altimeter: 30.24
* Temperature: 11° c. 51.8°f.
* Wind from: 090° Speed 04 kn.
Dewpoint: 09° c.
Visibility: 4 Statute Miles.
Clouds: Few 900 ft.
Clouds: Overcast 1400 ft.
Conditions: Mist.

KLSE 201653Z 09004KT 4SM BR FEW009 OVC014 11/09 A3024 RMK AO2 RAE42 SLP242 P0002 T01060089


Wind From 090°
Speed 04 kn.

 
 
jpsmedia.com for Web Design SOUNDCLOUD worldairports.se 2018   terms of use